Time;durP1;ratioP1;P1;durP2;ratioP2;P2;SDS_P1;SDS_P2;PMS_P1;PMS_P2;Temp;Humidity;BMP_temperature;BMP_pressure;BME280_temperature;BME280_humidity;BME280_pressure;Samples;Min_cycle;Max_cycle;Signal;HPM_P1;HPM_P2
2022/12/27 00:01:20;;;;;;;5.20;1.30;;;6.00;99.90;;;;;;5034822;28;20446;-71
2022/12/27 00:03:46;;;;;;;2.97;1.60;;;6.00;99.90;;;;;;5033065;28;20462;-71
2022/12/27 00:06:15;;;;;;;1.00;1.00;;;6.00;99.90;;;;;;5015751;28;20442;-71
2022/12/27 00:08:42;;;;;;;1.37;1.27;;;5.90;99.90;;;;;;5006401;28;20470;-71
2022/12/27 00:11:11;;;;;;;4.40;1.83;;;6.00;99.90;;;;;;5037296;28;20451;-71
2022/12/27 00:13:37;;;;;;;1.10;1.00;;;5.90;99.90;;;;;;5026268;28;20914;-71
2022/12/27 00:16:08;;;;;;;1.50;1.37;;;6.00;99.90;;;;;;5015286;28;20447;-72
2022/12/27 00:18:35;;;;;;;1.50;1.23;;;6.00;99.90;;;;;;5014869;28;20303;-71
2022/12/27 00:21:01;;;;;;;2.73;1.50;;;5.90;99.90;;;;;;5030483;28;20456;-71
2022/12/27 00:23:35;;;;;;;6.40;1.87;;;5.90;99.90;;;;;;5012643;28;20969;-71
2022/12/27 00:26:06;;;;;;;2.47;1.33;;;5.90;99.90;;;;;;5030960;28;20515;-71
2022/12/27 00:28:33;;;;;;;1.57;1.47;;;5.90;99.90;;;;;;5028161;28;20462;-71
2022/12/27 00:31:00;;;;;;;1.53;1.40;;;5.90;99.90;;;;;;5014012;28;20512;-71
2022/12/27 00:33:27;;;;;;;2.10;1.60;;;5.90;99.90;;;;;;5015467;28;20473;-71
2022/12/27 00:35:54;;;;;;;4.60;1.40;;;5.70;99.90;;;;;;5030584;28;20795;-71
2022/12/27 00:38:20;;;;;;;1.40;1.23;;;5.80;99.90;;;;;;5007729;28;20517;-72
2022/12/27 00:40:46;;;;;;;1.97;1.50;;;5.80;99.90;;;;;;5024769;28;20454;-71
2022/12/27 00:43:12;;;;;;;1.60;1.33;;;5.80;99.90;;;;;;5049365;28;20454;-71
2022/12/27 00:45:38;;;;;;;1.77;1.03;;;5.70;99.90;;;;;;5030748;28;20450;-69
2022/12/27 00:48:04;;;;;;;5.57;1.40;;;5.70;99.90;;;;;;5035331;28;20455;-71
2022/12/27 00:50:30;;;;;;;1.40;1.30;;;5.80;99.90;;;;;;5024433;28;20225;-70
2022/12/27 00:52:56;;;;;;;1.23;1.13;;;5.70;99.90;;;;;;5021563;28;20447;-71
2022/12/27 00:55:21;;;;;;;1.83;0.93;;;5.70;99.90;;;;;;5035788;28;20486;-71
2022/12/27 00:57:47;;;;;;;2.20;1.40;;;5.70;99.90;;;;;;5013935;28;20231;-71
2022/12/27 01:00:14;;;;;;;1.17;1.07;;;5.60;99.90;;;;;;5030526;28;20216;-70
2022/12/27 01:02:39;;;;;;;1.60;1.50;;;5.60;99.90;;;;;;5023488;28;20217;-71
2022/12/27 01:05:06;;;;;;;1.83;0.97;;;5.60;99.90;;;;;;5028548;28;20458;-71
2022/12/27 01:07:31;;;;;;;2.17;0.93;;;5.60;99.90;;;;;;5028100;28;20220;-72
2022/12/27 01:09:57;;;;;;;2.00;1.30;;;5.60;99.90;;;;;;5029013;28;20465;-71
2022/12/27 01:12:24;;;;;;;0.70;0.70;;;5.60;99.90;;;;;;5031392;28;20710;-71
2022/12/27 01:14:50;;;;;;;2.23;1.23;;;5.60;99.90;;;;;;5016535;28;20311;-72
2022/12/27 01:17:16;;;;;;;1.20;1.10;;;5.50;99.90;;;;;;5009419;28;21014;-72
2022/12/27 01:19:42;;;;;;;0.60;0.60;;;5.50;99.90;;;;;;5019503;28;20211;-71
2022/12/27 01:22:08;;;;;;;1.17;1.10;;;5.50;99.90;;;;;;5030599;28;20564;-71
2022/12/27 01:24:34;;;;;;;1.27;1.00;;;5.50;99.90;;;;;;5029394;28;20251;-71
2022/12/27 01:26:59;;;;;;;3.73;0.87;;;5.10;99.90;;;;;;5024936;28;20250;-72
2022/12/27 01:29:25;;;;;;;3.93;1.07;;;5.20;99.90;;;;;;5004046;28;20213;-69
2022/12/27 01:31:51;;;;;;;1.00;1.00;;;5.20;99.90;;;;;;5005503;28;20309;-69
2022/12/27 01:34:17;;;;;;;1.33;0.77;;;5.30;99.90;;;;;;5025274;28;20220;-72
2022/12/27 01:36:43;;;;;;;0.80;0.80;;;5.30;99.90;;;;;;4998894;28;20224;-70
2022/12/27 01:39:12;;;;;;;1.17;0.60;;;5.40;99.90;;;;;;5025204;28;20459;-69
2022/12/27 01:44:37;;;;;;;0.93;0.80;;;5.30;99.90;;;;;;5022592;28;20546;-70
2022/12/27 01:47:42;;;;;;;1.60;0.90;;;5.30;99.90;;;;;;5004035;28;20466;-70
2022/12/27 01:50:26;;;;;;;0.70;0.70;;;5.20;99.90;;;;;;5037580;28;20508;-70
2022/12/27 01:53:14;;;;;;;1.40;0.83;;;5.20;99.90;;;;;;5039473;28;20458;-70
2022/12/27 01:55:54;;;;;;;1.97;0.80;;;5.30;99.90;;;;;;5036825;28;20723;-70
2022/12/27 01:58:39;;;;;;;0.80;0.80;;;5.30;99.90;;;;;;5041905;28;20508;-71
2022/12/27 02:01:11;;;;;;;1.97;1.00;;;5.20;99.90;;;;;;5026031;28;20450;-71
2022/12/27 02:03:44;;;;;;;1.93;1.00;;;5.20;99.90;;;;;;5030102;28;20442;-71
2022/12/27 02:06:11;;;;;;;1.90;1.07;;;5.20;99.90;;;;;;5032846;28;20446;-71
2022/12/27 02:09:07;;;;;;;1.90;1.30;;;5.20;99.90;;;;;;5016400;28;20454;-71
2022/12/27 02:11:50;;;;;;;0.70;0.70;;;5.10;99.90;;;;;;5034948;28;20525;-70
2022/12/27 02:14:21;;;;;;;0.83;0.83;;;5.20;99.90;;;;;;5011715;28;20546;-71
2022/12/27 02:16:47;;;;;;;1.57;1.10;;;5.10;99.90;;;;;;5018561;28;20511;-71
2022/12/27 02:19:40;;;;;;;1.47;0.53;;;5.10;99.90;;;;;;5032809;28;20446;-71
2022/12/27 02:22:18;;;;;;;1.00;0.63;;;5.10;99.90;;;;;;5026895;28;20955;-71
2022/12/27 02:24:55;;;;;;;1.83;0.80;;;5.10;99.90;;;;;;5034404;28;20894;-71
2022/12/27 02:27:33;;;;;;;1.90;0.60;;;5.10;99.90;;;;;;5033693;28;21155;-71
2022/12/27 02:30:05;;;;;;;0.40;0.40;;;5.10;99.90;;;;;;5010528;28;20465;-71
2022/12/27 02:32:51;;;;;;;1.17;0.80;;;5.10;99.90;;;;;;5027607;28;20463;-71
2022/12/27 02:35:32;;;;;;;2.77;1.43;;;5.00;99.90;;;;;;5028436;28;20442;-71
2022/12/27 02:38:18;;;;;;;0.47;0.40;;;5.00;99.90;;;;;;5032773;28;20477;-71
2022/12/27 02:53:02;;;;;;;3.40;0.63;;;5.00;99.90;;;;;;5040152;28;20942;-71
2022/12/27 02:55:34;;;;;;;1.57;0.83;;;4.90;99.90;;;;;;5009950;28;20425;-71
2022/12/27 02:58:31;;;;;;;0.80;0.50;;;4.80;99.90;;;;;;5009318;28;20520;-69
2022/12/27 03:04:09;;;;;;;1.50;0.70;;;4.80;99.90;;;;;;5024999;28;20450;-71
2022/12/27 03:07:01;;;;;;;1.43;0.57;;;4.70;99.90;;;;;;5017965;28;20448;-69
2022/12/27 03:16:06;;;;;;;0.93;0.80;;;4.80;99.90;;;;;;5034106;28;20450;-70
2022/12/27 03:18:45;;;;;;;1.23;1.13;;;4.80;99.90;;;;;;5009914;28;20977;-72
2022/12/27 03:26:51;;;;;;;1.83;0.57;;;4.70;99.90;;;;;;5034146;28;20454;-71
2022/12/27 03:35:00;;;;;;;0.83;0.57;;;4.60;99.90;;;;;;5032283;28;20468;-70
2022/12/27 03:40:28;;;;;;;0.70;0.70;;;4.70;99.90;;;;;;5049876;28;20451;-70
2022/12/27 03:43:12;;;;;;;0.83;0.80;;;4.60;99.90;;;;;;5048742;28;20454;-72
2022/12/27 03:48:37;;;;;;;1.00;0.90;;;4.70;99.90;;;;;;5033589;28;20450;-71
2022/12/27 03:51:05;;;;;;;1.57;0.70;;;4.70;99.90;;;;;;5032557;28;20545;-71
2022/12/27 03:53:35;;;;;;;0.73;0.67;;;4.70;99.90;;;;;;5033704;28;20470;-71
2022/12/27 03:56:02;;;;;;;2.40;0.90;;;4.70;99.90;;;;;;5032224;28;20501;-71
2022/12/27 03:58:28;;;;;;;0.60;0.60;;;4.60;99.90;;;;;;5033350;28;20508;-71
2022/12/27 04:00:53;;;;;;;2.43;0.70;;;4.60;99.90;;;;;;5033139;28;20458;-71
2022/12/27 04:03:19;;;;;;;1.00;0.83;;;4.60;99.90;;;;;;5050524;28;20246;-71
2022/12/27 04:05:45;;;;;;;2.27;1.30;;;4.60;99.90;;;;;;5031026;28;20692;-71
2022/12/27 04:35:34;;;;;;;1.63;1.43;;;4.50;99.90;;;;;;5032928;28;20462;-71
2022/12/27 04:38:00;;;;;;;2.00;1.43;;;4.60;99.90;;;;;;5031091;28;20454;-71
2022/12/27 04:57:02;;;;;;;1.03;0.77;;;4.10;99.90;;;;;;5049045;28;20835;-70
2022/12/27 05:02:13;;;;;;;2.70;1.00;;;4.30;99.90;;;;;;5027186;28;20455;-71
2022/12/27 05:04:39;;;;;;;1.07;0.97;;;4.30;99.90;;;;;;5032200;28;20977;-69
2022/12/27 05:15:22;;;;;;;1.57;1.00;;;4.20;99.90;;;;;;5049577;28;20478;-71
2022/12/27 05:17:47;;;;;;;2.27;1.67;;;4.10;99.90;;;;;;5032093;28;20480;-71
2022/12/27 05:20:13;;;;;;;1.20;1.10;;;4.20;99.90;;;;;;5036608;28;20307;-70
2022/12/27 05:25:36;;;;;;;1.10;0.93;;;4.20;99.90;;;;;;5028658;28;20242;-71
2022/12/27 05:28:07;;;;;;;1.70;1.07;;;4.30;99.90;;;;;;5014446;28;20450;-71
2022/12/27 05:30:35;;;;;;;1.40;1.13;;;4.20;99.90;;;;;;5015987;28;20468;-70
2022/12/27 05:33:02;;;;;;;1.53;1.00;;;4.20;99.90;;;;;;5021629;28;20455;-71
2022/12/27 05:35:28;;;;;;;5.83;1.33;;;4.10;99.90;;;;;;5015781;28;20527;-70
2022/12/27 05:37:54;;;;;;;4.03;1.20;;;4.00;99.90;;;;;;5007105;28;20547;-70
2022/12/27 05:40:21;;;;;;;1.33;1.23;;;4.20;99.90;;;;;;5031950;28;20492;-71
2022/12/27 05:42:46;;;;;;;0.90;0.90;;;4.30;99.90;;;;;;5021973;28;20508;-70
2022/12/27 05:45:13;;;;;;;1.40;1.30;;;4.30;99.90;;;;;;5022738;28;20819;-71
2022/12/27 05:47:39;;;;;;;2.10;1.40;;;4.30;99.90;;;;;;5014456;28;20322;-70
2022/12/27 05:50:06;;;;;;;5.13;1.37;;;4.20;99.90;;;;;;5020843;28;20462;-70
2022/12/27 05:52:31;;;;;;;1.83;1.40;;;4.10;99.90;;;;;;5031638;28;20542;-71
2022/12/27 05:54:57;;;;;;;2.23;1.30;;;4.10;99.90;;;;;;5019495;28;20506;-71
2022/12/27 05:57:23;;;;;;;3.87;1.50;;;4.20;99.90;;;;;;5012944;28;20224;-70
2022/12/27 05:59:48;;;;;;;2.87;1.97;;;4.20;99.90;;;;;;5010551;28;20600;-70
2022/12/27 06:02:14;;;;;;;1.97;1.10;;;4.20;99.90;;;;;;5029399;28;20224;-71
2022/12/27 06:04:40;;;;;;;1.33;1.23;;;4.10;99.90;;;;;;5049186;28;20810;-69
2022/12/27 06:07:05;;;;;;;6.40;1.70;;;4.00;99.90;;;;;;5047820;28;20240;-70
2022/12/27 06:09:31;;;;;;;1.80;1.70;;;4.00;99.90;;;;;;5023299;28;20235;-69
2022/12/27 06:11:57;;;;;;;5.40;1.97;;;3.90;99.90;;;;;;5045645;28;20224;-70
2022/12/27 06:14:22;;;;;;;2.27;1.50;;;3.90;99.90;;;;;;5013992;28;20229;-71
2022/12/27 06:16:48;;;;;;;3.37;1.87;;;3.80;99.90;;;;;;5015244;28;20299;-70
2022/12/27 06:19:14;;;;;;;1.60;1.50;;;3.70;99.90;;;;;;5019620;28;20212;-70
2022/12/27 06:21:39;;;;;;;7.17;1.60;;;3.70;99.90;;;;;;5014594;28;20208;-70
2022/12/27 06:24:05;;;;;;;1.37;1.27;;;3.70;99.90;;;;;;5031073;28;20601;-70
2022/12/27 06:26:32;;;;;;;3.23;1.37;;;3.70;99.90;;;;;;5031204;28;20247;-70
2022/12/27 06:28:58;;;;;;;3.00;1.57;;;3.70;99.90;;;;;;5010837;28;20451;-71
2022/12/27 06:31:24;;;;;;;1.50;1.33;;;3.80;99.90;;;;;;5041468;28;20473;-71
2022/12/27 06:33:51;;;;;;;2.53;1.77;;;3.80;99.90;;;;;;5020997;28;20990;-71
2022/12/27 06:36:19;;;;;;;3.13;1.70;;;3.90;99.90;;;;;;5031354;28;21011;-70
2022/12/27 06:38:45;;;;;;;1.90;1.40;;;3.90;99.90;;;;;;5047462;28;20472;-70
2022/12/27 06:41:13;;;;;;;3.30;1.30;;;3.80;99.90;;;;;;5024898;28;20443;-71
2022/12/27 06:43:40;;;;;;;2.30;1.87;;;3.90;99.90;;;;;;5030767;28;20458;-71
2022/12/27 06:46:11;;;;;;;1.40;1.30;;;3.80;99.90;;;;;;5030774;28;20462;-70
2022/12/27 06:48:36;;;;;;;2.47;1.60;;;3.80;99.90;;;;;;5002875;28;21017;-70
2022/12/27 06:51:04;;;;;;;1.83;1.47;;;3.80;99.90;;;;;;5039749;28;20463;-71
2022/12/27 06:53:29;;;;;;;1.40;1.30;;;3.70;99.90;;;;;;5035635;28;20224;-71
2022/12/27 06:55:55;;;;;;;2.90;1.60;;;3.60;99.90;;;;;;5011622;28;20442;-71
2022/12/27 06:58:20;;;;;;;7.13;2.80;;;3.70;99.90;;;;;;5035976;28;20219;-70
2022/12/27 07:00:46;;;;;;;3.77;2.33;;;3.60;99.90;;;;;;5052338;28;20295;-71
2022/12/27 07:03:12;;;;;;;3.60;2.03;;;3.50;99.90;;;;;;5033646;28;20346;-70
2022/12/27 07:05:38;;;;;;;2.30;2.10;;;3.40;99.90;;;;;;5035107;28;20218;-71
2022/12/27 07:08:04;;;;;;;4.93;2.33;;;3.40;99.90;;;;;;5017456;28;20302;-70
2022/12/27 07:10:29;;;;;;;4.10;1.80;;;3.40;99.90;;;;;;5018211;28;20215;-70
2022/12/27 07:12:56;;;;;;;2.30;1.90;;;3.30;99.90;;;;;;5033847;28;20465;-70
2022/12/27 07:15:22;;;;;;;4.23;2.37;;;3.20;99.90;;;;;;5051475;28;20227;-71
2022/12/27 07:17:48;;;;;;;7.93;2.70;;;3.30;99.90;;;;;;5051460;28;20480;-71
2022/12/27 07:20:13;;;;;;;7.10;2.77;;;3.30;99.90;;;;;;5025083;28;20506;-70
2022/12/27 07:22:39;;;;;;;4.13;1.73;;;3.20;99.90;;;;;;5017004;28;20223;-71
2022/12/27 07:25:05;;;;;;;5.30;2.30;;;3.20;99.90;;;;;;5033228;28;20584;-70
2022/12/27 07:27:35;;;;;;;4.67;2.20;;;3.20;99.90;;;;;;5016813;28;20228;-70
2022/12/27 07:30:01;;;;;;;2.77;2.20;;;3.30;99.90;;;;;;5015672;28;20462;-71
2022/12/27 07:32:27;;;;;;;6.73;2.70;;;3.30;99.90;;;;;;5034066;28;20455;-70
2022/12/27 07:34:52;;;;;;;1.60;1.50;;;3.30;99.90;;;;;;5033997;28;20515;-69
2022/12/27 07:37:19;;;;;;;5.73;1.37;;;3.20;99.90;;;;;;5033478;28;20322;-70
2022/12/27 07:39:45;;;;;;;1.70;1.40;;;3.20;99.90;;;;;;5033158;28;20711;-70
2022/12/27 07:42:10;;;;;;;2.60;1.13;;;3.20;99.90;;;;;;5050998;28;20450;-70
2022/12/27 07:44:36;;;;;;;2.43;1.63;;;3.30;99.90;;;;;;5017974;28;20722;-71
2022/12/27 07:47:02;;;;;;;1.60;1.47;;;3.30;99.90;;;;;;5033300;28;20524;-70
2022/12/27 07:49:28;;;;;;;3.63;1.60;;;3.20;99.90;;;;;;5035171;28;20466;-70
2022/12/27 07:51:55;;;;;;;6.30;1.90;;;3.20;99.90;;;;;;5037361;28;20495;-69
2022/12/27 07:54:21;;;;;;;1.83;1.53;;;3.20;99.90;;;;;;5046181;28;20548;-70
2022/12/27 07:56:47;;;;;;;3.70;1.80;;;3.30;99.90;;;;;;5030648;28;20302;-70
2022/12/27 07:59:13;;;;;;;9.50;1.70;;;3.30;99.90;;;;;;5032672;28;20230;-70
2022/12/27 08:02:02;;;;;;;4.07;1.87;;;3.30;99.90;;;;;;5033133;28;20239;-71
2022/12/27 08:04:25;;;;;;;4.30;1.70;;;3.40;99.90;;;;;;5029052;28;20454;-70
2022/12/27 08:06:51;;;;;;;1.87;1.77;;;3.50;99.90;;;;;;5032760;28;20516;-70
2022/12/27 08:09:24;;;;;;;2.37;1.73;;;3.60;99.90;;;;;;5033132;28;20613;-70
2022/12/27 08:11:50;;;;;;;4.27;2.03;;;3.80;99.90;;;;;;5016757;28;20739;-71
2022/12/27 08:14:16;;;;;;;4.13;2.00;;;3.90;99.90;;;;;;5016953;28;20541;-72
2022/12/27 08:16:42;;;;;;;4.90;2.30;;;3.90;99.90;;;;;;5013608;28;20673;-71
2022/12/27 08:19:07;;;;;;;4.47;2.40;;;4.00;99.90;;;;;;5029018;28;20235;-70
2022/12/27 08:21:33;;;;;;;4.00;2.17;;;4.00;99.90;;;;;;5014806;28;20221;-70
2022/12/27 08:23:59;;;;;;;4.97;2.00;;;4.00;99.90;;;;;;5030095;28;20212;-70
2022/12/27 08:26:25;;;;;;;2.10;1.83;;;4.00;99.90;;;;;;5019592;28;20516;-71
2022/12/27 08:28:51;;;;;;;5.47;2.50;;;4.00;99.90;;;;;;5031783;28;20212;-71
2022/12/27 08:31:17;;;;;;;2.27;1.87;;;4.10;99.90;;;;;;5015975;28;20546;-70
2022/12/27 08:33:45;;;;;;;4.93;2.20;;;4.10;99.90;;;;;;5032041;28;20227;-71
2022/12/27 08:36:12;;;;;;;5.80;2.20;;;4.10;99.90;;;;;;5027274;28;20235;-70
2022/12/27 08:38:38;;;;;;;1.77;1.67;;;4.10;99.90;;;;;;5048457;28;20555;-70
2022/12/27 08:41:04;;;;;;;3.43;2.00;;;4.00;99.90;;;;;;5031627;28;20596;-71
2022/12/27 08:43:29;;;;;;;3.37;1.47;;;3.90;99.90;;;;;;5016559;28;20349;-71
2022/12/27 08:46:07;;;;;;;3.13;2.00;;;4.00;99.90;;;;;;5010793;28;20216;-71
2022/12/27 08:48:35;;;;;;;2.27;1.80;;;4.00;99.90;;;;;;5032004;28;20284;-70
2022/12/27 08:51:05;;;;;;;3.47;1.70;;;4.10;99.90;;;;;;5012850;28;20467;-71
2022/12/27 08:53:31;;;;;;;9.03;2.00;;;4.20;99.90;;;;;;5032382;28;20513;-71
2022/12/27 08:55:58;;;;;;;7.23;2.07;;;4.30;99.90;;;;;;5031772;28;20989;-71
2022/12/27 08:58:23;;;;;;;3.33;2.00;;;4.30;99.90;;;;;;5016549;28;20447;-70
2022/12/27 09:00:50;;;;;;;5.03;2.00;;;4.40;99.90;;;;;;5024557;28;20212;-71
2022/12/27 09:03:19;;;;;;;2.00;1.83;;;4.40;99.90;;;;;;5023572;28;20232;-71
2022/12/27 09:05:48;;;;;;;1.70;1.50;;;4.40;99.90;;;;;;5031653;28;20450;-71
2022/12/27 09:08:14;;;;;;;3.60;1.93;;;4.40;99.90;;;;;;5028651;28;20829;-71
2022/12/27 09:10:40;;;;;;;4.93;1.53;;;4.50;99.90;;;;;;5028059;28;20458;-71
2022/12/27 09:13:06;;;;;;;2.00;1.80;;;4.50;99.90;;;;;;5034533;28;20211;-70
2022/12/27 09:15:31;;;;;;;3.57;2.47;;;4.60;99.90;;;;;;5015289;28;20240;-71
2022/12/27 09:17:57;;;;;;;3.10;2.27;;;4.50;99.90;;;;;;5010837;28;20570;-71
2022/12/27 09:20:23;;;;;;;3.97;2.40;;;4.60;99.90;;;;;;5026199;28;20226;-71
2022/12/27 09:22:50;;;;;;;6.30;2.57;;;4.70;99.90;;;;;;5030812;28;20218;-71
2022/12/27 09:25:16;;;;;;;4.10;2.20;;;4.70;99.90;;;;;;5011082;28;20447;-71
2022/12/27 09:27:42;;;;;;;2.20;1.90;;;4.60;99.90;;;;;;5015474;28;20451;-71
2022/12/27 09:30:08;;;;;;;4.23;2.50;;;4.70;99.90;;;;;;5031541;28;20589;-71
2022/12/27 09:32:34;;;;;;;2.70;2.13;;;4.70;99.90;;;;;;5031096;28;20224;-71
2022/12/27 09:35:00;;;;;;;3.80;2.87;;;4.70;99.90;;;;;;5030509;28;20521;-71
2022/12/27 09:37:26;;;;;;;7.27;2.40;;;4.80;99.90;;;;;;5031737;28;21002;-71
2022/12/27 09:39:51;;;;;;;5.50;2.33;;;4.90;99.90;;;;;;5014785;28;20948;-71
2022/12/27 09:42:45;;;;;;;6.13;2.60;;;4.90;99.90;;;;;;5032574;28;20246;-72
2022/12/27 09:45:16;;;;;;;3.40;2.27;;;4.90;99.90;;;;;;5027449;28;20290;-71
2022/12/27 09:47:42;;;;;;;5.07;2.23;;;4.90;99.90;;;;;;5048485;28;20490;-71
2022/12/27 09:50:24;;;;;;;6.00;3.17;;;4.90;99.90;;;;;;5050842;28;20465;-71
2022/12/27 09:53:10;;;;;;;4.60;2.73;;;4.90;99.90;;;;;;5023225;28;20208;-70
2022/12/27 09:55:43;;;;;;;4.33;2.67;;;4.90;99.90;;;;;;5020363;28;20454;-71
2022/12/27 09:58:34;;;;;;;7.50;4.70;;;4.90;99.90;;;;;;5027333;28;20881;-71
2022/12/27 10:01:01;;;;;;;9.63;5.00;;;5.00;99.90;;;;;;5026369;28;20445;-71
2022/12/27 10:03:29;;;;;;;7.23;5.70;;;4.90;99.90;;;;;;5029516;28;20448;-70
2022/12/27 10:06:19;;;;;;;16.83;6.40;;;4.90;99.90;;;;;;5045278;28;20442;-72
2022/12/27 10:08:58;;;;;;;9.30;3.80;;;4.90;99.90;;;;;;5035006;28;20454;-71
2022/12/27 10:11:46;;;;;;;3.80;2.83;;;5.00;99.90;;;;;;5012922;28;20439;-71
2022/12/27 10:14:17;;;;;;;4.10;2.90;;;5.00;99.90;;;;;;5023589;28;20473;-71
2022/12/27 10:17:07;;;;;;;2.50;2.23;;;5.00;99.90;;;;;;5017422;28;20454;-71
2022/12/27 10:19:45;;;;;;;2.73;2.10;;;5.00;99.90;;;;;;5035841;28;20461;-69
2022/12/27 10:22:31;;;;;;;3.33;2.47;;;5.10;99.90;;;;;;5048465;28;21257;-71
2022/12/27 10:24:59;;;;;;;7.70;3.00;;;5.10;99.90;;;;;;5013595;28;20454;-70
2022/12/27 10:27:27;;;;;;;3.77;2.53;;;5.20;99.90;;;;;;5022108;28;20447;-72
2022/12/27 10:29:58;;;;;;;3.10;2.77;;;5.30;99.90;;;;;;5034010;28;20465;-71
2022/12/27 10:32:24;;;;;;;4.57;2.63;;;5.20;99.90;;;;;;5015427;28;20497;-71
2022/12/27 10:35:18;;;;;;;4.63;3.57;;;5.30;99.90;;;;;;5015294;28;20467;-71
2022/12/27 10:37:45;;;;;;;6.13;3.37;;;5.30;99.90;;;;;;5029229;28;20513;-71
2022/12/27 10:40:21;;;;;;;6.93;3.13;;;5.40;99.90;;;;;;5029195;28;20478;-71
2022/12/27 10:43:03;;;;;;;7.00;4.93;;;5.50;99.90;;;;;;5018720;28;20451;-71
2022/12/27 10:45:38;;;;;;;6.93;4.13;;;5.50;99.90;;;;;;5003082;28;20458;-71
2022/12/27 10:48:23;;;;;;;9.77;6.33;;;5.50;99.90;;;;;;5027792;28;20468;-72
2022/12/27 10:51:09;;;;;;;6.07;4.57;;;5.50;99.90;;;;;;5021412;28;20494;-72
2022/12/27 10:53:43;;;;;;;10.33;3.60;;;5.60;99.90;;;;;;5052886;28;20515;-71
2022/12/27 10:56:14;;;;;;;6.20;4.27;;;5.60;99.90;;;;;;5033019;28;20454;-71
2022/12/27 10:58:47;;;;;;;8.37;4.93;;;5.60;99.90;;;;;;5014296;28;20450;-71
2022/12/27 11:01:28;;;;;;;4.83;2.93;;;5.60;99.90;;;;;;5021605;28;20436;-71
2022/12/27 11:04:20;;;;;;;8.97;3.53;;;5.60;99.90;;;;;;5016224;28;20450;-71
2022/12/27 11:07:09;;;;;;;15.73;3.50;;;5.70;99.90;;;;;;5021931;28;20455;-72
2022/12/27 11:09:42;;;;;;;5.63;4.10;;;5.60;99.90;;;;;;5033907;28;20464;-72
2022/12/27 11:12:27;;;;;;;3.60;2.80;;;5.70;99.90;;;;;;5034648;28;20454;-71
2022/12/27 11:14:58;;;;;;;4.70;2.50;;;5.80;99.90;;;;;;5032216;28;20466;-72
2022/12/27 11:17:47;;;;;;;10.27;2.53;;;5.80;99.90;;;;;;5016911;28;20462;-72
2022/12/27 11:20:25;;;;;;;4.80;2.53;;;5.90;99.90;;;;;;5033860;28;20457;-71
2022/12/27 11:22:58;;;;;;;2.53;2.27;;;5.90;99.90;;;;;;5033126;28;20454;-72
2022/12/27 11:25:26;;;;;;;3.87;2.67;;;6.00;99.90;;;;;;5030804;28;20458;-71
2022/12/27 11:28:15;;;;;;;4.47;2.30;;;5.90;99.90;;;;;;5050069;28;20462;-71
2022/12/27 11:30:54;;;;;;;4.57;2.43;;;6.00;99.90;;;;;;5030890;28;20446;-72
2022/12/27 11:33:47;;;;;;;8.70;4.70;;;6.00;99.90;;;;;;5033407;28;20438;-72
2022/12/27 11:36:22;;;;;;;12.43;6.77;;;6.10;99.90;;;;;;5019874;28;20466;-71
2022/12/27 11:38:48;;;;;;;43.07;19.67;;;6.00;99.90;;;;;;5029656;28;20474;-71
2022/12/27 11:41:22;;;;;;;26.10;15.70;;;6.10;99.90;;;;;;5026477;28;20461;-72
2022/12/27 11:44:12;;;;;;;27.63;14.87;;;6.20;99.90;;;;;;5029906;28;20469;-71
2022/12/27 11:46:56;;;;;;;28.43;14.60;;;6.20;99.90;;;;;;5029961;28;20477;-72
2022/12/27 11:49:27;;;;;;;40.90;22.00;;;6.20;99.90;;;;;;5031822;28;20521;-72
2022/12/27 11:52:24;;;;;;;23.17;14.47;;;6.30;99.90;;;;;;5018418;28;20962;-72
2022/12/27 11:54:53;;;;;;;15.73;10.00;;;6.40;99.90;;;;;;5014296;28;20467;-73
2022/12/27 11:57:24;;;;;;;12.30;7.93;;;6.60;99.90;;;;;;5029453;28;20462;-72
2022/12/27 12:00:02;;;;;;;4.27;3.37;;;6.70;99.90;;;;;;5014234;28;20497;-71
2022/12/27 12:02:42;;;;;;;3.67;2.33;;;6.60;99.90;;;;;;5029598;28;20453;-72
2022/12/27 12:05:32;;;;;;;3.40;2.20;;;6.40;99.90;;;;;;5010733;28;20459;-72
2022/12/27 12:08:22;;;;;;;7.50;2.60;;;6.70;99.90;;;;;;5025769;28;20491;-71
2022/12/27 12:10:49;;;;;;;2.63;2.43;;;6.80;99.90;;;;;;5042207;28;20543;-72
2022/12/27 12:14:03;;;;;;;4.03;2.50;;;6.90;99.90;;;;;;5048427;28;20458;-71
2022/12/27 12:16:41;;;;;;;6.70;2.80;;;6.90;99.90;;;;;;4981453;28;20447;-72
2022/12/27 12:19:44;;;;;;;2.20;2.00;;;7.00;99.90;;;;;;5030340;28;20447;-70
2022/12/27 12:22:15;;;;;;;2.97;2.30;;;7.10;99.90;;;;;;5023236;28;20545;-71
2022/12/27 12:25:18;;;;;;;1.93;1.73;;;7.20;99.90;;;;;;5008149;28;20447;-72
2022/12/27 12:28:32;;;;;;;6.80;2.67;;;7.20;99.90;;;;;;5029731;28;20496;-71
2022/12/27 12:31:22;;;;;;;3.83;2.13;;;7.30;99.90;;;;;;4968729;28;20840;-70
2022/12/27 12:34:16;;;;;;;35.70;15.93;;;7.20;99.90;;;;;;5021843;28;20466;-71
2022/12/27 12:37:12;;;;;;;29.70;17.80;;;7.10;99.90;;;;;;5015018;28;20471;-71
2022/12/27 12:40:00;;;;;;;18.60;8.80;;;7.20;99.90;;;;;;5026818;28;20448;-72
2022/12/27 12:42:49;;;;;;;11.67;5.80;;;7.20;99.90;;;;;;5024492;28;20446;-71
2022/12/27 12:45:52;;;;;;;6.80;4.40;;;7.30;99.90;;;;;;5004184;28;20446;-72
2022/12/27 12:48:40;;;;;;;6.27;2.80;;;7.40;99.90;;;;;;5013906;28;20446;-72
2022/12/27 12:51:27;;;;;;;6.80;3.67;;;7.40;99.90;;;;;;5044771;28;20818;-70
2022/12/27 12:54:20;;;;;;;3.30;2.17;;;7.40;99.90;;;;;;5029034;28;20479;-72
2022/12/27 12:57:08;;;;;;;2.70;2.17;;;7.30;99.90;;;;;;5031013;28;20449;-71
2022/12/27 12:59:53;;;;;;;4.80;2.60;;;7.30;99.90;;;;;;5028835;28;20446;-71
2022/12/27 13:02:41;;;;;;;6.33;2.90;;;7.20;99.90;;;;;;5027568;28;20441;-71
2022/12/27 13:05:33;;;;;;;6.90;3.60;;;7.20;99.90;;;;;;5031325;28;20831;-71
2022/12/27 13:08:26;;;;;;;6.87;4.10;;;7.20;99.90;;;;;;5030431;28;20524;-72
2022/12/27 13:11:11;;;;;;;4.40;2.87;;;7.20;99.90;;;;;;5018266;28;20459;-72
2022/12/27 13:13:59;;;;;;;4.70;2.53;;;7.20;99.90;;;;;;5049020;28;20558;-71
2022/12/27 13:16:54;;;;;;;5.27;2.33;;;7.20;99.90;;;;;;5013206;28;20510;-72
2022/12/27 13:19:49;;;;;;;3.17;2.40;;;7.20;99.90;;;;;;5028682;28;20443;-72
2022/12/27 13:22:24;;;;;;;4.30;2.90;;;7.20;99.90;;;;;;5016077;28;20443;-71
2022/12/27 13:25:04;;;;;;;6.80;2.90;;;7.20;99.90;;;;;;5015129;28;20845;-71
2022/12/27 13:27:49;;;;;;;5.10;2.40;;;7.20;99.90;;;;;;5030810;28;20450;-71
2022/12/27 13:30:42;;;;;;;3.03;2.10;;;7.20;99.90;;;;;;5028605;28;20450;-72
2022/12/27 13:33:22;;;;;;;3.50;2.83;;;7.20;99.90;;;;;;5009312;28;20500;-72
2022/12/27 13:36:29;;;;;;;5.03;2.60;;;7.20;99.90;;;;;;5023395;28;20466;-71
2022/12/27 13:39:22;;;;;;;5.37;2.30;;;7.20;99.90;;;;;;4996044;28;20467;-72
2022/12/27 13:41:57;;;;;;;2.57;2.37;;;7.10;99.90;;;;;;5047765;28;20467;-72
2022/12/27 13:44:28;;;;;;;3.43;2.80;;;7.00;99.90;;;;;;5048724;28;20450;-72
2022/12/27 13:47:31;;;;;;;2.17;1.97;;;7.00;99.90;;;;;;5031281;28;20446;-72
2022/12/27 13:50:25;;;;;;;2.00;1.77;;;7.00;99.90;;;;;;5030032;28;20868;-72
2022/12/27 13:52:54;;;;;;;2.80;2.47;;;7.00;99.90;;;;;;5014564;28;20451;-71
2022/12/27 13:55:57;;;;;;;9.20;2.97;;;6.90;99.90;;;;;;5031200;28;20542;-72
2022/12/27 13:58:32;;;;;;;4.03;2.23;;;6.90;99.90;;;;;;5027733;28;20475;-72
2022/12/27 14:01:33;;;;;;;3.77;2.17;;;6.90;99.90;;;;;;5030774;28;20464;-72
2022/12/27 14:04:22;;;;;;;4.50;2.93;;;6.90;99.90;;;;;;5012368;28;20454;-72
2022/12/27 14:07:06;;;;;;;6.00;2.30;;;6.90;99.90;;;;;;5033300;28;20474;-72
2022/12/27 14:09:32;;;;;;;2.60;2.00;;;7.00;99.90;;;;;;5030696;28;20447;-72
2022/12/27 14:12:26;;;;;;;5.77;2.37;;;7.00;99.90;;;;;;5043365;28;20998;-72
2022/12/27 14:14:56;;;;;;;4.93;2.87;;;7.00;99.90;;;;;;5026138;28;20255;-72
2022/12/27 14:17:27;;;;;;;3.53;2.73;;;6.90;99.90;;;;;;5028077;28;20490;-72
2022/12/27 14:20:05;;;;;;;4.40;2.47;;;6.90;99.90;;;;;;5032007;28;20496;-72
2022/12/27 14:22:58;;;;;;;3.87;2.83;;;6.90;99.90;;;;;;5010598;28;20565;-72
2022/12/27 14:25:55;;;;;;;4.97;2.73;;;6.90;99.90;;;;;;5033205;28;20551;-72
2022/12/27 14:28:40;;;;;;;4.50;2.90;;;6.90;99.90;;;;;;5044366;28;20465;-72
2022/12/27 14:31:24;;;;;;;6.57;3.33;;;6.90;99.90;;;;;;5029427;28;20454;-71
2022/12/27 14:34:24;;;;;;;5.80;3.07;;;6.80;99.90;;;;;;5049467;28;20470;-72
2022/12/27 14:37:12;;;;;;;7.33;3.27;;;6.70;99.90;;;;;;4972720;28;20455;-71
2022/12/27 14:39:59;;;;;;;5.80;3.30;;;6.50;99.90;;;;;;5032435;28;20468;-71
2022/12/27 14:42:49;;;;;;;6.13;3.50;;;6.40;99.90;;;;;;5034385;28;21021;-71
2022/12/27 14:45:52;;;;;;;5.93;3.60;;;6.50;99.90;;;;;;5016613;28;20450;-71
2022/12/27 14:48:39;;;;;;;5.53;3.50;;;6.40;99.90;;;;;;5041904;28;20437;-71
2022/12/27 14:51:42;;;;;;;12.30;5.27;;;6.40;99.90;;;;;;5029249;28;20463;-72
2022/12/27 14:54:16;;;;;;;9.53;5.60;;;6.50;99.90;;;;;;5016078;28;20508;-71
2022/12/27 14:57:11;;;;;;;13.37;6.80;;;6.50;99.90;;;;;;5049170;28;20482;-72
2022/12/27 14:59:57;;;;;;;10.43;5.73;;;6.50;99.90;;;;;;5003079;28;20450;-71
2022/12/27 15:02:40;;;;;;;8.10;4.60;;;6.50;99.90;;;;;;5033593;28;20458;-72
2022/12/27 15:05:23;;;;;;;7.87;4.00;;;6.40;99.90;;;;;;5038763;28;20458;-71
2022/12/27 15:08:01;;;;;;;5.30;4.80;;;6.40;99.90;;;;;;5028748;28;20517;-70
2022/12/27 15:10:44;;;;;;;8.60;5.67;;;6.40;99.90;;;;;;5014080;28;20465;-72
2022/12/27 15:13:29;;;;;;;5.40;4.40;;;6.30;99.90;;;;;;5030697;28;20457;-71